Time;durP1;ratioP1;P1;durP2;ratioP2;P2;SDS_P1;SDS_P2;PMS_P1;PMS_P2;Temp;Humidity;BMP_temperature;BMP_pressure;BME280_temperature;BME280_humidity;BME280_pressure;Samples;Min_cycle;Max_cycle;Signal;HPM_P1;HPM_P2
2021/12/05 00:18:28;;;;;;;8.13;3.50;;;;;;;2.69;91.37;99712.00;5011202;28;20052;-74
2021/12/05 00:23:46;;;;;;;8.60;3.70;;;;;;;2.73;91.15;99716.25;5026030;28;20044;-76
2021/12/05 00:26:17;;;;;;;17.10;4.13;;;;;;;2.74;91.15;99717.09;5019412;28;20500;-77
2021/12/05 00:31:42;;;;;;;;;;;;;;;;;;;;;
2021/12/05 00:42:24;;;;;;;13.18;3.10;;;;;;;2.68;91.08;99709.41;5027552;28;20042;-77
2021/12/05 00:48:00;;;;;;;14.63;4.15;;;;;;;2.58;91.21;99711.78;4997290;28;20033;-77
2021/12/05 01:09:11;;;;;;;13.05;3.70;;;;;;;2.08;92.05;99718.19;5025456;28;20033;-79
2021/12/05 01:14:33;;;;;;;8.05;3.33;;;;;;;2.02;92.13;99729.28;5027659;28;20556;-75
2021/12/05 01:16:59;;;;;;;10.15;3.17;;;;;;;1.99;92.24;99724.06;5021749;28;20032;-74
2021/12/05 01:19:26;;;;;;;14.18;4.00;;;;;;;1.94;92.29;99715.41;5017045;28;20029;-76
2021/12/05 01:21:56;;;;;;;12.55;3.80;;;;;;;1.87;92.50;99717.56;5025789;28;20030;-77
2021/12/05 01:27:08;;;;;;;13.07;3.53;;;;;;;1.85;92.56;99716.78;5013691;28;20033;-77
2021/12/05 01:32:11;;;;;;;11.48;3.90;;;;;;;1.75;92.59;99713.72;5014453;28;20025;-79
2021/12/05 01:37:16;;;;;;;12.23;3.40;;;;;;;1.72;93.08;99724.59;5019460;28;20116;-79
2021/12/05 01:58:53;;;;;;;14.73;3.92;;;;;;;1.46;93.35;99718.00;5027713;28;20041;-78
2021/12/05 02:15:12;;;;;;;13.80;4.07;;;;;;;1.36;93.83;99703.34;5025774;28;20169;-77
2021/12/05 02:34:51;;;;;;;12.98;3.75;;;;;;;1.49;94.81;99691.03;5011042;28;20099;-73
2021/12/05 02:38:01;;;;;;;11.80;3.45;;;;;;;1.55;94.64;99691.66;5031390;28;20091;-74
2021/12/05 02:40:44;;;;;;;14.55;3.10;;;;;;;1.59;94.73;99685.19;5020309;28;20386;-73
2021/12/05 02:43:13;;;;;;;9.05;3.22;;;;;;;1.57;94.81;99682.56;5029582;28;20029;-74
2021/12/05 02:45:42;;;;;;;11.88;3.03;;;;;;;1.60;94.69;99692.25;5029490;28;20473;-74
2021/12/05 02:48:08;;;;;;;14.43;3.15;;;;;;;1.63;94.71;99694.75;5026725;28;20048;-77
2021/12/05 02:50:37;;;;;;;19.08;3.10;;;;;;;1.63;94.57;99690.28;5029126;28;20021;-74
2021/12/05 02:53:16;;;;;;;14.00;2.85;;;;;;;1.62;94.69;99690.34;5029520;28;20480;-77
2021/12/05 02:55:44;;;;;;;14.15;2.92;;;;;;;1.70;94.65;99690.81;5023559;28;20470;-77
2021/12/05 02:58:16;;;;;;;15.15;3.03;;;;;;;1.71;94.26;99693.41;5042854;28;20079;-74
2021/12/05 03:01:05;;;;;;;11.07;2.75;;;;;;;1.71;94.23;99697.91;5028155;28;20025;-77
2021/12/05 03:03:32;;;;;;;10.50;2.95;;;;;;;1.67;94.33;99697.19;5020989;28;20032;-77
2021/12/05 03:06:09;;;;;;;16.15;3.15;;;;;;;1.64;94.65;99702.75;5029745;28;20064;-77
2021/12/05 03:08:35;;;;;;;12.05;3.03;;;;;;;1.71;94.79;99698.75;5027448;28;20033;-77
2021/12/05 03:11:01;;;;;;;11.13;2.90;;;;;;;1.76;94.80;99695.81;5029730;28;20022;-76
2021/12/05 03:13:27;;;;;;;20.98;3.75;;;;;;;1.79;95.08;99693.84;5023931;28;20021;-74
2021/12/05 03:15:56;;;;;;;8.60;3.08;;;;;;;1.82;94.74;99683.88;5016075;28;20061;-77
2021/12/05 03:18:21;;;;;;;11.55;2.83;;;;;;;1.85;94.76;99689.97;5026622;28;20460;-78
2021/12/05 03:20:46;;;;;;;15.13;3.10;;;;;;;1.88;94.86;99678.22;5029771;28;20053;-75
2021/12/05 03:23:12;;;;;;;13.80;2.92;;;;;;;1.91;94.40;99686.97;5025104;28;20036;-79
2021/12/05 03:25:38;;;;;;;17.40;3.28;;;;;;;1.92;94.60;99683.31;5027982;28;20033;-77
2021/12/05 03:28:04;;;;;;;7.05;2.67;;;;;;;1.92;94.65;99677.94;5029254;28;20529;-76
2021/12/05 03:30:30;;;;;;;16.30;3.38;;;;;;;1.94;94.27;99684.09;5027941;28;20163;-74
2021/12/05 03:32:55;;;;;;;10.02;3.83;;;;;;;1.93;94.62;99689.53;5014739;28;20117;-74
2021/12/05 03:35:25;;;;;;;12.52;3.35;;;;;;;1.93;94.51;99682.34;5028241;28;20029;-77
2021/12/05 03:37:51;;;;;;;11.85;3.45;;;;;;;1.91;94.47;99686.97;5026840;28;20061;-74
2021/12/05 03:40:20;;;;;;;8.93;3.22;;;;;;;1.93;94.54;99681.50;5028421;28;20386;-77
2021/12/05 03:42:46;;;;;;;8.57;3.40;;;;;;;1.95;94.58;99684.94;5024876;28;20017;-74
2021/12/05 03:45:16;;;;;;;12.55;4.03;;;;;;;1.97;94.23;99688.44;5024671;28;20171;-74
2021/12/05 03:47:41;;;;;;;8.80;3.58;;;;;;;1.99;94.38;99684.69;5018653;28;20029;-77
2021/12/05 03:50:09;;;;;;;8.63;3.63;;;;;;;1.98;94.59;99676.75;5029037;28;20465;-77
2021/12/05 03:52:35;;;;;;;14.88;4.55;;;;;;;2.04;94.58;99676.38;5027337;28;20033;-77
2021/12/05 03:55:01;;;;;;;17.08;3.30;;;;;;;2.11;94.40;99691.19;5027593;28;20038;-77
2021/12/05 03:57:26;;;;;;;13.13;4.45;;;;;;;2.12;94.57;99690.25;5025393;28;20477;-76
2021/12/05 03:59:52;;;;;;;12.52;4.28;;;;;;;2.16;94.76;99691.81;5019276;28;20037;-74
2021/12/05 04:02:17;;;;;;;9.48;4.10;;;;;;;2.18;94.46;99684.53;5009544;28;20087;-77
2021/12/05 04:04:42;;;;;;;7.57;4.28;;;;;;;2.24;94.56;99688.69;5027442;28;20042;-73
2021/12/05 04:07:08;;;;;;;7.93;4.00;;;;;;;2.29;94.41;99695.53;5027224;28;20472;-76
2021/12/05 04:09:35;;;;;;;7.40;3.72;;;;;;;2.33;94.23;99698.88;5022694;28;20029;-77
2021/12/05 04:12:02;;;;;;;10.32;4.05;;;;;;;2.36;94.55;99696.03;5028872;28;20060;-77
2021/12/05 04:14:41;;;;;;;10.50;5.03;;;;;;;2.40;94.25;99692.22;5026675;28;20029;-77
2021/12/05 04:17:09;;;;;;;12.27;4.00;;;;;;;2.43;94.30;99685.81;5026332;28;20021;-78
2021/12/05 04:19:35;;;;;;;11.10;4.82;;;;;;;2.49;93.98;99694.38;5027732;28;20519;-74
2021/12/05 04:22:01;;;;;;;8.82;4.90;;;;;;;2.49;94.28;99691.69;5028292;28;20068;-76
2021/12/05 04:24:26;;;;;;;15.77;5.20;;;;;;;2.50;93.98;99698.78;5024173;28;20495;-77
2021/12/05 04:26:52;;;;;;;12.85;5.05;;;;;;;2.54;94.20;99703.03;5019148;28;20485;-73
2021/12/05 04:29:18;;;;;;;13.38;5.15;;;;;;;2.55;94.04;99695.84;5026850;28;20401;-73
2021/12/05 04:31:44;;;;;;;16.67;4.90;;;;;;;2.61;93.66;99699.97;5026436;28;20025;-77
2021/12/05 04:34:11;;;;;;;6.25;4.57;;;;;;;2.62;93.64;99689.16;5027659;28;20040;-77
2021/12/05 04:36:39;;;;;;;10.40;4.57;;;;;;;2.64;93.79;99695.28;5027910;28;20086;-77
2021/12/05 04:39:04;;;;;;;10.70;4.10;;;;;;;2.65;93.69;99696.16;5020649;28;20057;-77
2021/12/05 04:41:30;;;;;;;8.55;4.50;;;;;;;2.64;93.79;99692.63;5022883;28;20092;-76
2021/12/05 04:43:57;;;;;;;8.57;4.10;;;;;;;2.67;93.87;99696.94;5027924;28;20025;-77
2021/12/05 04:46:24;;;;;;;7.47;3.58;;;;;;;2.67;93.75;99695.13;5023552;28;20029;-77
2021/12/05 04:48:54;;;;;;;7.78;3.72;;;;;;;2.65;94.04;99691.66;5026093;28;20052;-77
2021/12/05 04:51:27;;;;;;;9.15;4.10;;;;;;;2.69;93.75;99703.09;5027681;28;20092;-76
2021/12/05 04:53:52;;;;;;;6.70;2.90;;;;;;;2.68;93.46;99686.13;5023258;28;20095;-75
2021/12/05 04:56:18;;;;;;;10.02;4.10;;;;;;;2.70;93.96;99691.38;5027616;28;20029;-74
2021/12/05 04:58:44;;;;;;;12.80;3.42;;;;;;;2.69;93.79;99690.53;5028668;28;20033;-77
2021/12/05 05:01:09;;;;;;;6.45;3.70;;;;;;;2.69;94.07;99682.47;5017211;28;20029;-77
2021/12/05 05:03:36;;;;;;;7.57;3.58;;;;;;;2.70;93.82;99686.00;5013216;28;20204;-78
2021/12/05 05:06:09;;;;;;;9.70;3.50;;;;;;;2.72;94.02;99692.19;5026148;28;20041;-77
2021/12/05 05:08:35;;;;;;;7.53;3.80;;;;;;;2.71;94.10;99694.00;5025489;28;20043;-75
2021/12/05 05:11:05;;;;;;;12.38;4.28;;;;;;;2.71;94.08;99690.44;5027594;28;20038;-77
2021/12/05 05:13:32;;;;;;;8.40;3.35;;;;;;;2.71;93.90;99688.63;5026243;28;20021;-73
2021/12/05 05:15:58;;;;;;;7.68;3.58;;;;;;;2.72;94.12;99695.72;5020416;28;20030;-74
2021/12/05 05:18:28;;;;;;;8.70;2.97;;;;;;;2.71;93.92;99696.69;5024351;28;20464;-79
2021/12/05 05:42:56;;;;;;;5.88;3.05;;;;;;;2.74;93.88;99717.97;5021467;28;20045;-77
2021/12/05 05:50:13;;;;;;;6.22;3.15;;;;;;;2.74;94.17;99730.53;5019957;28;20029;-79
2021/12/05 05:52:38;;;;;;;8.90;2.65;;;;;;;2.74;94.15;99727.84;5027848;28;20032;-77
2021/12/05 05:55:04;;;;;;;6.75;3.00;;;;;;;2.76;93.91;99737.56;5017578;28;20029;-79
2021/12/05 06:00:34;;;;;;;4.95;2.72;;;;;;;2.75;93.99;99735.84;5028679;28;20060;-78
2021/12/05 06:05:48;;;;;;;3.75;2.33;;;;;;;2.69;93.56;99733.47;5031931;28;20120;-77
2021/12/05 06:08:13;;;;;;;7.18;2.25;;;;;;;2.68;93.30;99741.63;5030180;28;20029;-74
2021/12/05 06:10:38;;;;;;;4.18;2.65;;;;;;;2.66;93.42;99739.06;5025076;28;20374;-76
2021/12/05 06:13:04;;;;;;;3.83;2.78;;;;;;;2.63;93.74;99741.91;5023628;28;20101;-78
2021/12/05 06:15:30;;;;;;;4.50;2.17;;;;;;;2.65;93.66;99747.16;5026451;28;20032;-78
2021/12/05 06:17:56;;;;;;;3.92;2.65;;;;;;;2.64;93.96;99749.00;5022040;28;20064;-79
2021/12/05 06:20:25;;;;;;;5.22;2.70;;;;;;;2.62;93.91;99758.09;5029056;28;20063;-79
2021/12/05 06:22:52;;;;;;;2.72;2.40;;;;;;;2.58;93.48;99744.00;5028721;28;20489;-76
2021/12/05 06:25:22;;;;;;;4.25;2.53;;;;;;;2.58;93.77;99753.88;5018593;28;20143;-75
2021/12/05 06:27:49;;;;;;;3.65;2.50;;;;;;;2.55;93.51;99755.75;5020777;28;20083;-79
2021/12/05 06:38:42;;;;;;;5.82;2.60;;;;;;;2.52;93.45;99769.38;5017998;28;20137;-77
2021/12/05 06:41:18;;;;;;;2.97;2.28;;;;;;;2.52;93.56;99772.06;5013726;28;20061;-79
2021/12/05 06:46:18;;;;;;;5.80;2.03;;;;;;;2.50;93.82;99776.63;5023679;28;20077;-77
2021/12/05 06:48:44;;;;;;;;;;;;;;;2.53;93.58;99783.66;5022006;28;20025;-77
2021/12/05 06:51:15;;;;;;;2.47;2.25;;;;;;;2.52;94.01;99779.25;5021936;28;20355;-74
2021/12/05 06:53:40;;;;;;;5.93;2.47;;;;;;;2.50;93.97;99784.69;5020960;28;20473;-76
2021/12/05 06:56:06;;;;;;;3.78;2.65;;;;;;;2.51;94.06;99780.19;5027834;28;20041;-78
2021/12/05 06:58:33;;;;;;;3.78;2.55;;;;;;;2.50;94.08;99790.06;5027997;28;20108;-76
2021/12/05 07:01:01;;;;;;;3.40;2.88;;;;;;;2.49;94.10;99799.06;5016221;28;20036;-75
2021/12/05 07:03:26;;;;;;;3.58;2.40;;;;;;;2.48;94.12;99808.06;5019807;28;20507;-77
2021/12/05 07:05:59;;;;;;;4.65;2.30;;;;;;;2.51;93.97;99817.75;5029700;28;20029;-77
2021/12/05 07:08:31;;;;;;;5.32;2.45;;;;;;;2.51;94.05;99815.06;5016825;28;20040;-74
2021/12/05 07:11:04;;;;;;;4.63;2.65;;;;;;;2.52;94.34;99814.16;5025160;28;20021;-73
2021/12/05 07:19:18;;;;;;;4.10;2.78;;;;;;;2.55;94.18;99819.31;5021110;28;20550;-74
2021/12/05 07:21:52;;;;;;;3.45;2.88;;;;;;;2.57;93.97;99822.81;5030236;28;20076;-74
2021/12/05 07:24:32;;;;;;;3.90;2.85;;;;;;;2.60;94.29;99832.50;5027905;28;20033;-74
2021/12/05 07:40:30;;;;;;;7.00;4.82;;;;;;;2.66;94.45;99848.25;5015850;28;20448;-77
2021/12/05 07:42:59;;;;;;;9.65;3.75;;;;;;;2.66;94.34;99849.13;5024113;28;20037;-76
2021/12/05 07:45:33;;;;;;;16.15;8.13;;;;;;;2.68;94.33;99855.28;5021539;28;20021;-77
2021/12/05 07:48:06;;;;;;;13.73;6.43;;;;;;;2.67;94.33;99853.56;5021687;28;20173;-78
2021/12/05 07:50:44;;;;;;;11.73;6.60;;;;;;;2.69;94.06;99858.81;5014350;28;20025;-74
2021/12/05 07:53:18;;;;;;;25.58;11.10;;;;;;;2.73;94.70;99865.75;5018743;28;20062;-78
2021/12/05 07:55:45;;;;;;;9.25;5.45;;;;;;;2.73;94.61;99857.72;5017810;28;20032;-78
2021/12/05 08:00:59;;;;;;;30.40;16.00;;;;;;;2.72;94.37;99861.34;5020818;28;20443;-76
2021/12/05 08:14:31;;;;;;;13.20;6.25;;;;;;;2.76;94.71;99874.53;5035482;28;20025;-76
2021/12/05 08:14:53;;;;;;;26.92;13.15;;;;;;;2.80;94.25;99875.22;5025459;28;20080;-78
2021/12/05 08:17:20;;;;;;;11.73;5.72;;;;;;;2.82;94.25;99876.00;5012092;28;20026;-79
2021/12/05 08:19:46;;;;;;;60.92;21.95;;;;;;;2.84;94.29;99883.94;5028202;28;20026;-76
2021/12/05 08:22:11;;;;;;;17.88;8.25;;;;;;;2.84;94.45;99886.63;5019313;28;20029;-79
2021/12/05 08:24:38;;;;;;;9.75;5.95;;;;;;;2.84;94.32;99875.88;5011819;28;20057;-76
2021/12/05 08:27:05;;;;;;;18.20;11.20;;;;;;;2.84;93.82;99876.75;5012950;28;20032;-80
2021/12/05 08:29:40;;;;;;;7.93;5.07;;;;;;;2.87;94.01;99886.47;5023788;28;20041;-78
2021/12/05 08:35:16;;;;;;;8.43;5.25;;;;;;;2.88;94.03;99888.19;5007457;28;20044;-76
2021/12/05 09:24:32;;;;;;;6.13;4.30;;;;;;;3.18;93.67;99953.66;5029503;28;20037;-77
2021/12/05 09:29:31;;;;;;;8.55;5.93;;;;;;;3.24;93.91;99958.69;5021981;28;20044;-74
2021/12/05 09:50:54;;;;;;;7.72;5.45;;;;;;;3.31;93.69;99981.59;5020671;28;20674;-78
2021/12/05 09:52:01;;;;;;;7.85;5.20;;;;;;;3.47;93.85;99991.47;5022734;28;20044;-74
2021/12/05 10:08:37;;;;;;;7.07;5.40;;;;;;;3.68;93.31;100013.56;5025316;28;20045;-77
2021/12/05 10:16:38;;;;;;;11.20;5.85;;;;;;;3.69;93.31;100028.75;5018353;28;20037;-78
2021/12/05 10:19:54;;;;;;;9.38;5.93;;;;;;;3.65;92.85;100029.88;5024008;28;20037;-73
2021/12/05 10:34:11;;;;;;;8.02;6.03;;;;;;;3.66;93.26;100051.31;5016369;28;20037;-78
2021/12/05 10:36:39;;;;;;;9.68;6.63;;;;;;;3.62;93.19;100047.03;5030101;28;20428;-77
2021/12/05 10:39:10;;;;;;;11.00;6.50;;;;;;;3.62;93.28;100046.19;5026670;28;20052;-78
2021/12/05 10:44:09;;;;;;;10.57;6.53;;;;;;;3.65;93.27;100051.41;5017824;28;20029;-78
2021/12/05 10:46:39;;;;;;;10.32;6.35;;;;;;;3.62;93.05;100052.44;5023190;28;20044;-76
2021/12/05 10:49:07;;;;;;;8.13;6.35;;;;;;;3.61;93.32;100047.16;5036640;28;20489;-74
2021/12/05 10:51:37;;;;;;;7.70;5.82;;;;;;;3.60;93.22;100051.66;5016717;28;20021;-80
2021/12/05 10:54:09;;;;;;;9.13;6.80;;;;;;;3.63;93.28;100064.03;5022421;28;20583;-76
2021/12/05 10:56:38;;;;;;;10.33;6.90;;;;;;;3.64;93.06;100058.59;5015948;28;20084;-76
2021/12/05 10:59:13;;;;;;;10.50;6.50;;;;;;;3.66;93.40;100058.50;5020590;28;20124;-74
2021/12/05 11:01:46;;;;;;;10.95;6.65;;;;;;;3.68;93.37;100060.13;5015702;28;20136;-76
2021/12/05 11:04:17;;;;;;;13.80;7.10;;;;;;;3.68;92.62;100054.75;5019774;28;20037;-81
2021/12/05 11:06:53;;;;;;;9.18;6.13;;;;;;;3.68;93.13;100054.75;5011479;28;20136;-80
2021/12/05 11:09:20;;;;;;;8.43;6.25;;;;;;;3.69;92.39;100066.41;5015905;28;20461;-80
2021/12/05 11:11:50;;;;;;;8.05;6.20;;;;;;;3.67;92.67;100061.09;5027682;28;20047;-76
2021/12/05 11:14:22;;;;;;;8.00;5.70;;;;;;;3.67;92.61;100058.41;5023561;28;20388;-77
2021/12/05 11:16:55;;;;;;;11.13;7.13;;;;;;;3.68;92.26;100062.81;5011465;28;20473;-75
2021/12/05 11:19:25;;;;;;;12.52;6.45;;;;;;;3.68;92.46;100064.66;5015681;28;20025;-77
2021/12/05 11:21:56;;;;;;;6.93;5.28;;;;;;;3.66;91.46;100058.50;5021611;28;20075;-81
2021/12/05 11:24:29;;;;;;;8.82;4.93;;;;;;;3.62;91.27;100073.94;5007241;28;20049;-76
2021/12/05 11:27:11;;;;;;;6.32;4.80;;;;;;;3.64;91.80;100079.22;5024924;28;20385;-77
2021/12/05 11:29:47;;;;;;;5.55;4.43;;;;;;;3.63;92.19;100075.66;5017921;28;20110;-75
2021/12/05 11:32:31;;;;;;;8.88;4.95;;;;;;;3.64;91.84;100082.81;5023961;28;20030;-80
2021/12/05 11:34:56;;;;;;;9.38;4.38;;;;;;;3.66;91.96;100082.72;5026924;28;20747;-78
2021/12/05 11:37:22;;;;;;;6.55;4.30;;;;;;;3.69;91.80;100086.09;5024957;28;20041;-80
2021/12/05 11:39:48;;;;;;;8.68;3.85;;;;;;;3.76;91.90;100087.47;5020210;28;20556;-76
2021/12/05 11:42:21;;;;;;;8.50;5.47;;;;;;;3.84;91.43;100096.00;5025515;28;20041;-76
2021/12/05 11:44:49;;;;;;;;;;;;;;;3.92;92.06;100100.09;5029284;28;20154;-74
2021/12/05 11:47:17;;;;;;;7.10;4.63;;;;;;;3.91;90.87;100103.69;5015666;28;20071;-76
2021/12/05 11:49:42;;;;;;;8.77;4.30;;;;;;;3.91;90.84;100104.56;5025419;28;20078;-76
2021/12/05 11:52:09;;;;;;;6.43;4.40;;;;;;;3.95;90.88;100106.13;5021191;28;20025;-74
2021/12/05 11:54:46;;;;;;;6.55;4.55;;;;;;;3.96;90.87;100102.47;5014422;28;20410;-77
2021/12/05 11:57:18;;;;;;;5.45;4.63;;;;;;;3.98;91.17;100114.03;5014859;28;20383;-81
2021/12/05 12:00:00;;;;;;;5.75;4.70;;;;;;;3.96;90.94;100107.88;5022228;28;20527;-76
2021/12/05 12:02:33;;;;;;;9.77;5.55;;;;;;;3.96;90.89;100115.06;5014074;28;20030;-74
2021/12/05 12:05:21;;;;;;;6.13;4.95;;;;;;;3.95;91.32;100110.66;5018698;28;20037;-77
2021/12/05 12:08:02;;;;;;;7.35;5.13;;;;;;;3.96;91.44;100115.06;5022796;28;20037;-74
2021/12/05 12:10:34;;;;;;;9.05;5.90;;;;;;;3.93;90.91;100126.91;5023442;28;20034;-77
2021/12/05 12:13:22;;;;;;;9.07;5.60;;;;;;;3.92;91.41;100124.31;5019939;28;20021;-77
2021/12/05 12:15:58;;;;;;;9.75;6.38;;;;;;;3.92;90.91;100124.31;5020969;28;20100;-77
2021/12/05 12:18:28;;;;;;;9.73;6.47;;;;;;;3.89;91.05;100119.09;5023275;28;20037;-78
2021/12/05 12:20:55;;;;;;;12.82;6.97;;;;;;;3.92;91.01;100119.78;5011990;28;20017;-76
2021/12/05 12:23:22;;;;;;;8.68;5.80;;;;;;;3.92;90.50;100127.00;5006624;28;20026;-73
2021/12/05 12:25:52;;;;;;;9.77;6.55;;;;;;;3.94;91.25;100119.69;5013792;28;20308;-78
2021/12/05 12:28:20;;;;;;;8.57;6.28;;;;;;;4.00;90.54;100132.78;5017536;28;20099;-74
2021/12/05 12:30:55;;;;;;;8.68;5.80;;;;;;;4.03;90.43;100138.00;5013257;28;20032;-77
2021/12/05 12:33:26;;;;;;;11.60;5.97;;;;;;;4.08;90.74;100133.22;5014846;28;20040;-76
2021/12/05 12:35:51;;;;;;;7.90;5.78;;;;;;;4.15;90.61;100136.41;5018001;28;20383;-78
2021/12/05 12:38:22;;;;;;;10.65;5.38;;;;;;;4.14;90.18;100132.00;5022178;28;20044;-74
2021/12/05 12:41:00;;;;;;;7.65;5.10;;;;;;;4.16;90.36;100141.72;5012103;28;20033;-74
2021/12/05 12:43:38;;;;;;;9.18;6.18;;;;;;;4.21;90.22;100144.16;5020789;28;20038;-77
2021/12/05 12:46:28;;;;;;;6.40;4.65;;;;;;;4.25;90.99;100149.28;5014089;28;20473;-77
2021/12/05 12:49:15;;;;;;;6.50;4.80;;;;;;;4.27;90.65;100151.88;5017490;28;20068;-78
2021/12/05 12:51:45;;;;;;;5.53;4.75;;;;;;;4.24;90.06;100155.63;5020278;28;20485;-74
2021/12/05 12:54:18;;;;;;;6.05;4.68;;;;;;;4.27;90.18;100157.25;5019304;28;20021;-73
2021/12/05 12:57:23;;;;;;;6.70;4.40;;;;;;;4.34;91.08;100156.84;5012546;28;20033;-77
2021/12/05 12:59:55;;;;;;;7.55;4.82;;;;;;;4.38;89.84;100165.56;5001524;28;20459;-77
2021/12/05 13:02:37;;;;;;;7.63;4.53;;;;;;;4.41;90.20;100156.47;5013413;28;20037;-74
2021/12/05 13:05:22;;;;;;;5.85;4.72;;;;;;;4.42;90.29;100164.44;5017563;28;20417;-78
2021/12/05 13:10:44;;;;;;;8.40;5.20;;;;;;;4.46;90.30;100170.53;5008884;28;20044;-73
2021/12/05 13:13:26;;;;;;;8.32;5.57;;;;;;;4.43;89.89;100176.97;5022894;28;20030;-77
2021/12/05 13:15:59;;;;;;;7.35;5.63;;;;;;;4.38;89.84;100173.66;5024670;28;20029;-74
2021/12/05 13:18:30;;;;;;;8.27;5.68;;;;;;;4.35;88.94;100180.09;5025957;28;20056;-77
2021/12/05 13:21:10;;;;;;;9.55;6.10;;;;;;;4.33;89.55;100179.31;5016311;28;20038;-76
2021/12/05 13:23:51;;;;;;;10.82;6.10;;;;;;;4.30;88.80;100184.03;5014322;28;20060;-78
2021/12/05 13:26:26;;;;;;;9.80;6.20;;;;;;;4.28;89.55;100183.22;5018330;28;20032;-76
2021/12/05 13:28:56;;;;;;;8.82;6.05;;;;;;;4.26;89.34;100188.69;5024498;28;20037;-77
2021/12/05 13:31:28;;;;;;;9.35;6.30;;;;;;;4.26;89.73;100193.22;5011808;28;20029;-78
2021/12/05 13:34:15;;;;;;;9.18;5.75;;;;;;;4.25;89.31;100199.56;5018029;28;20041;-75
2021/12/05 13:36:43;;;;;;;8.20;5.50;;;;;;;4.23;87.97;100196.06;5007535;28;20045;-78
2021/12/05 13:39:30;;;;;;;8.07;5.13;;;;;;;4.26;89.75;100214.75;5017819;28;20057;-76
2021/12/05 13:42:39;;;;;;;10.50;5.57;;;;;;;4.26;89.49;100212.94;5014101;28;20029;-76
2021/12/05 13:45:31;;;;;;;8.88;6.18;;;;;;;4.26;88.70;100212.06;5037686;28;20882;-77
2021/12/05 13:47:58;;;;;;;11.67;5.37;;;;;;;4.26;88.79;100215.63;5023741;28;20488;-79
2021/12/05 13:50:30;;;;;;;8.10;5.50;;;;;;;4.23;88.70;100218.47;5021164;28;20053;-76
2021/12/05 13:53:01;;;;;;;8.38;5.55;;;;;;;4.22;89.15;100211.38;5012789;28;20034;-76
2021/12/05 13:55:54;;;;;;;8.60;5.45;;;;;;;4.23;89.50;100217.63;5021415;28;20045;-78
2021/12/05 13:58:28;;;;;;;6.18;4.32;;;;;;;4.20;88.31;100220.50;5015270;28;20037;-77
2021/12/05 14:01:21;;;;;;;8.45;5.28;;;;;;;4.18;89.36;100220.56;5014732;28;20104;-78
2021/12/05 14:03:56;;;;;;;;;;;;;;;4.21;89.53;100233.00;5019891;28;20044;-78
2021/12/05 14:06:30;;;;;;;7.07;4.90;;;;;;;4.15;88.22;100230.63;5014851;28;20012;-74
2021/12/05 14:09:19;;;;;;;7.68;5.53;;;;;;;4.14;88.92;100236.97;5004271;28;20045;-79
2021/12/05 14:11:56;;;;;;;7.43;4.70;;;;;;;4.11;88.70;100237.16;5009965;28;20058;-77
2021/12/05 14:14:29;;;;;;;6.47;4.72;;;;;;;4.10;89.04;100241.66;4982024;28;20045;-77
2021/12/05 14:16:58;;;;;;;6.57;4.75;;;;;;;4.07;89.14;100248.09;5021788;28;20122;-78
2021/12/05 14:19:27;;;;;;;9.48;5.22;;;;;;;4.07;89.44;100244.53;5016435;28;20029;-78
2021/12/05 14:21:56;;;;;;;7.20;4.65;;;;;;;4.04;88.99;100248.25;5022315;28;20037;-74
2021/12/05 14:24:24;;;;;;;7.70;5.43;;;;;;;4.06;88.15;100258.94;5029108;28;20412;-77
2021/12/05 14:26:52;;;;;;;7.55;5.85;;;;;;;4.04;87.93;100264.41;5014959;28;20120;-78
2021/12/05 14:29:26;;;;;;;11.40;6.38;;;;;;;4.01;88.30;100277.16;5019745;28;20026;-75
2021/12/05 14:32:14;;;;;;;9.07;5.95;;;;;;;4.02;88.83;100284.28;5020127;28;20034;-79
2021/12/05 14:34:42;;;;;;;9.35;6.30;;;;;;;4.01;88.52;100290.59;5023051;28;20034;-78
2021/12/05 14:37:12;;;;;;;11.20;6.78;;;;;;;4.02;88.95;100292.38;5023362;28;20033;-77
2021/12/05 14:39:43;;;;;;;8.50;6.00;;;;;;;4.03;89.21;100303.03;5019756;28;20045;-77
2021/12/05 14:42:21;;;;;;;9.77;6.32;;;;;;;4.02;89.27;100300.44;5019429;28;20517;-79
2021/12/05 14:44:51;;;;;;;10.52;7.18;;;;;;;4.00;89.64;100302.31;5028802;28;20076;-77
2021/12/05 14:47:21;;;;;;;9.40;6.03;;;;;;;4.00;89.70;100305.88;5024292;28;20034;-78
2021/12/05 14:49:50;;;;;;;11.15;6.78;;;;;;;3.98;89.51;100313.19;5024938;28;20029;-79
2021/12/05 14:52:20;;;;;;;11.98;7.38;;;;;;;3.97;89.04;100308.75;5020954;28;20013;-75
2021/12/05 14:54:47;;;;;;;9.75;6.45;;;;;;;3.98;88.95;100321.25;5020584;28;20059;-76
2021/12/05 14:57:15;;;;;;;14.38;7.00;;;;;;;3.99;89.07;100331.06;5014525;28;20046;-74
2021/12/05 14:59:44;;;;;;;13.13;7.43;;;;;;;3.98;89.90;100334.72;5014250;28;20083;-74
2021/12/05 15:02:11;;;;;;;12.45;7.43;;;;;;;3.98;89.90;100337.41;5016299;28;20056;-76
2021/12/05 15:04:40;;;;;;;11.50;7.15;;;;;;;3.99;89.75;100339.13;5013627;28;20057;-77
2021/12/05 15:07:06;;;;;;;11.00;6.68;;;;;;;3.99;89.15;100347.22;5011200;28;20026;-78
2021/12/05 15:09:41;;;;;;;10.23;7.57;;;;;;;3.95;89.62;100356.41;5021680;28;20045;-74
2021/12/05 15:12:10;;;;;;;10.68;7.20;;;;;;;3.92;90.19;100358.41;5026148;28;20415;-75
2021/12/05 15:14:39;;;;;;;11.43;7.28;;;;;;;3.92;90.38;100363.78;5021631;28;20029;-77
2021/12/05 15:17:08;;;;;;;12.45;7.20;;;;;;;3.92;90.21;100374.56;5019027;28;20464;-77
2021/12/05 15:19:38;;;;;;;11.27;7.25;;;;;;;3.88;89.21;100370.28;5014497;28;20034;-78
2021/12/05 15:22:05;;;;;;;10.52;6.88;;;;;;;3.88;90.45;100376.53;5025777;28;20029;-77
2021/12/05 15:24:32;;;;;;;11.75;6.82;;;;;;;3.87;90.52;100387.34;5022861;28;20043;-75
2021/12/05 15:26:58;;;;;;;12.05;6.75;;;;;;;3.82;90.20;100387.59;5019377;28;20031;-77
2021/12/05 15:29:26;;;;;;;12.55;7.25;;;;;;;3.80;90.87;100393.06;5024792;28;20087;-75
2021/12/05 15:31:51;;;;;;;13.43;7.57;;;;;;;3.79;90.83;100395.84;5030708;28;20026;-78
2021/12/05 15:34:19;;;;;;;10.55;6.85;;;;;;;3.75;90.01;100403.19;5027395;28;20535;-77
2021/12/05 15:36:45;;;;;;;10.98;7.20;;;;;;;3.74;90.03;100400.59;5026179;28;20508;-79
2021/12/05 15:39:19;;;;;;;13.00;7.38;;;;;;;3.70;90.43;100407.94;5016651;28;20045;-76
2021/12/05 15:41:46;;;;;;;10.68;6.75;;;;;;;3.69;90.80;100414.28;5012544;28;20013;-74
2021/12/05 15:44:30;;;;;;;12.25;5.82;;;;;;;3.70;90.83;100424.06;5025212;28;20025;-77
2021/12/05 15:47:01;;;;;;;10.10;6.20;;;;;;;3.68;91.28;100428.66;5024975;28;20033;-77
2021/12/05 15:49:42;;;;;;;11.38;6.28;;;;;;;3.65;90.38;100423.44;5015484;28;20056;-79
2021/12/05 15:52:08;;;;;;;12.65;7.25;;;;;;;3.65;91.15;100434.19;5027804;28;20036;-78
2021/12/05 15:54:33;;;;;;;11.57;7.10;;;;;;;3.63;91.00;100430.69;5027597;28;20037;-74
2021/12/05 15:57:20;;;;;;;10.93;6.80;;;;;;;3.62;90.91;100441.53;5019732;28;20108;-78
2021/12/05 15:59:47;;;;;;;10.10;6.47;;;;;;;3.61;89.45;100438.00;5020229;28;20037;-78
2021/12/05 16:02:17;;;;;;;10.23;6.68;;;;;;;3.61;90.45;100453.25;5014923;28;20025;-79
2021/12/05 16:04:43;;;;;;;13.38;7.05;;;;;;;3.61;90.26;100453.25;5010786;28;20352;-74
2021/12/05 16:07:10;;;;;;;11.95;6.88;;;;;;;3.58;90.33;100454.28;5022265;28;20511;-77
2021/12/05 16:09:38;;;;;;;13.88;7.35;;;;;;;3.58;89.89;100455.13;5022042;28;20029;-75
2021/12/05 16:12:09;;;;;;;14.40;7.43;;;;;;;3.61;90.32;100464.88;5021265;28;20079;-75
2021/12/05 16:14:37;;;;;;;12.35;7.63;;;;;;;3.59;90.57;100461.41;5015238;28;20551;-77
2021/12/05 16:17:35;;;;;;;13.10;7.07;;;;;;;3.61;90.92;100469.41;5022628;28;20025;-78
2021/12/05 16:20:27;;;;;;;12.80;7.22;;;;;;;3.54;91.32;100468.81;4999989;28;20080;-74
2021/12/05 16:23:03;;;;;;;12.95;7.03;;;;;;;3.54;91.06;100477.78;5014167;28;20516;-78
2021/12/05 16:25:29;;;;;;;14.05;6.47;;;;;;;3.53;91.68;100480.53;5016965;28;20064;-77
2021/12/05 16:28:01;;;;;;;11.13;6.78;;;;;;;3.52;91.22;100492.22;5026026;28;20033;-77
2021/12/05 16:30:33;;;;;;;13.10;7.35;;;;;;;3.50;91.66;100495.00;5025773;28;20018;-78
2021/12/05 16:33:01;;;;;;;11.45;6.65;;;;;;;3.46;91.50;100500.63;5025593;28;20029;-78
2021/12/05 16:35:34;;;;;;;12.88;6.70;;;;;;;3.46;91.57;100508.69;5027053;28;20182;-78
2021/12/05 16:38:02;;;;;;;10.60;6.82;;;;;;;3.46;91.42;100511.38;5015836;28;20048;-74
2021/12/05 16:40:54;;;;;;;11.07;6.45;;;;;;;3.47;91.23;100519.34;5027144;28;20026;-79
2021/12/05 16:43:20;;;;;;;11.13;6.90;;;;;;;3.46;91.88;100520.31;5017259;28;20040;-78
2021/12/05 16:45:46;;;;;;;11.88;6.88;;;;;;;3.47;92.02;100516.66;5028256;28;20025;-79
2021/12/05 16:48:16;;;;;;;12.48;6.78;;;;;;;3.45;91.90;100515.88;5017564;28;20077;-75